sensor_id;sensor_type;location;lat;lon;timestamp;P1;durP1;ratioP1;P2;durP2;ratioP2
24461;SDS011;12631;50.860;5.714;2022-12-18T00:01:32;6.78;;;6.20;;
24461;SDS011;12631;50.860;5.714;2022-12-18T00:04:00;11.68;;;7.82;;
24461;SDS011;12631;50.860;5.714;2022-12-18T00:06:33;13.98;;;8.48;;
24461;SDS011;12631;50.860;5.714;2022-12-18T00:09:03;11.00;;;5.88;;
24461;SDS011;12631;50.860;5.714;2022-12-18T00:11:30;11.65;;;7.00;;
24461;SDS011;12631;50.860;5.714;2022-12-18T00:13:58;12.25;;;7.38;;
24461;SDS011;12631;50.860;5.714;2022-12-18T00:16:28;7.75;;;6.95;;
24461;SDS011;12631;50.860;5.714;2022-12-18T00:18:58;13.52;;;8.13;;
24461;SDS011;12631;50.860;5.714;2022-12-18T00:21:26;9.65;;;6.65;;
24461;SDS011;12631;50.860;5.714;2022-12-18T00:23:55;7.00;;;5.75;;
24461;SDS011;12631;50.860;5.714;2022-12-18T00:26:25;9.23;;;5.15;;
24461;SDS011;12631;50.860;5.714;2022-12-18T00:28:53;13.88;;;5.97;;
24461;SDS011;12631;50.860;5.714;2022-12-18T00:31:22;13.10;;;6.80;;
24461;SDS011;12631;50.860;5.714;2022-12-18T00:33:50;10.40;;;5.57;;
24461;SDS011;12631;50.860;5.714;2022-12-18T00:36:18;7.78;;;6.53;;
24461;SDS011;12631;50.860;5.714;2022-12-18T00:38:46;21.50;;;7.50;;
24461;SDS011;12631;50.860;5.714;2022-12-18T00:41:14;12.10;;;5.65;;
24461;SDS011;12631;50.860;5.714;2022-12-18T00:44:05;9.80;;;5.57;;
24461;SDS011;12631;50.860;5.714;2022-12-18T00:46:33;13.93;;;7.40;;
24461;SDS011;12631;50.860;5.714;2022-12-18T00:49:00;11.75;;;6.72;;
24461;SDS011;12631;50.860;5.714;2022-12-18T00:51:27;16.08;;;4.85;;
24461;SDS011;12631;50.860;5.714;2022-12-18T00:53:55;6.10;;;5.55;;
24461;SDS011;12631;50.860;5.714;2022-12-18T00:56:22;6.82;;;6.05;;
24461;SDS011;12631;50.860;5.714;2022-12-18T00:58:50;14.57;;;5.90;;
24461;SDS011;12631;50.860;5.714;2022-12-18T01:01:18;8.35;;;6.15;;
24461;SDS011;12631;50.860;5.714;2022-12-18T01:03:46;8.82;;;5.55;;
24461;SDS011;12631;50.860;5.714;2022-12-18T01:06:14;8.50;;;5.05;;
24461;SDS011;12631;50.860;5.714;2022-12-18T01:08:42;12.77;;;6.00;;
24461;SDS011;12631;50.860;5.714;2022-12-18T01:11:10;6.60;;;5.07;;
24461;SDS011;12631;50.860;5.714;2022-12-18T01:13:38;9.38;;;6.28;;
24461;SDS011;12631;50.860;5.714;2022-12-18T01:16:06;7.30;;;5.38;;
24461;SDS011;12631;50.860;5.714;2022-12-18T01:18:35;9.93;;;4.28;;
24461;SDS011;12631;50.860;5.714;2022-12-18T01:21:05;14.00;;;5.15;;
24461;SDS011;12631;50.860;5.714;2022-12-18T01:23:33;4.55;;;4.15;;
24461;SDS011;12631;50.860;5.714;2022-12-18T01:26:04;6.63;;;4.05;;
24461;SDS011;12631;50.860;5.714;2022-12-18T01:28:32;23.38;;;6.63;;
24461;SDS011;12631;50.860;5.714;2022-12-18T01:31:08;14.55;;;5.03;;
24461;SDS011;12631;50.860;5.714;2022-12-18T01:33:41;7.78;;;5.28;;
24461;SDS011;12631;50.860;5.714;2022-12-18T01:36:13;5.28;;;4.85;;
24461;SDS011;12631;50.860;5.714;2022-12-18T01:38:41;6.55;;;5.50;;
24461;SDS011;12631;50.860;5.714;2022-12-18T01:41:08;4.65;;;4.25;;
24461;SDS011;12631;50.860;5.714;2022-12-18T01:43:43;7.70;;;4.70;;
24461;SDS011;12631;50.860;5.714;2022-12-18T01:46:11;9.07;;;4.75;;
24461;SDS011;12631;50.860;5.714;2022-12-18T01:48:41;10.02;;;5.25;;
24461;SDS011;12631;50.860;5.714;2022-12-18T01:51:10;9.85;;;3.97;;
24461;SDS011;12631;50.860;5.714;2022-12-18T01:53:39;6.55;;;4.85;;
24461;SDS011;12631;50.860;5.714;2022-12-18T01:56:11;13.82;;;5.57;;
24461;SDS011;12631;50.860;5.714;2022-12-18T01:58:42;10.30;;;3.88;;
24461;SDS011;12631;50.860;5.714;2022-12-18T02:01:15;3.40;;;3.05;;
24461;SDS011;12631;50.860;5.714;2022-12-18T02:03:44;3.42;;;3.13;;
24461;SDS011;12631;50.860;5.714;2022-12-18T02:06:13;3.88;;;2.95;;
24461;SDS011;12631;50.860;5.714;2022-12-18T02:08:48;4.28;;;3.75;;
24461;SDS011;12631;50.860;5.714;2022-12-18T02:11:24;11.27;;;3.97;;
24461;SDS011;12631;50.860;5.714;2022-12-18T02:14:02;3.53;;;3.25;;
24461;SDS011;12631;50.860;5.714;2022-12-18T02:16:39;3.70;;;3.40;;
24461;SDS011;12631;50.860;5.714;2022-12-18T02:19:15;7.95;;;4.13;;
24461;SDS011;12631;50.860;5.714;2022-12-18T02:21:58;3.55;;;3.38;;
24461;SDS011;12631;50.860;5.714;2022-12-18T02:24:34;3.38;;;3.05;;
24461;SDS011;12631;50.860;5.714;2022-12-18T02:27:09;4.63;;;3.25;;
24461;SDS011;12631;50.860;5.714;2022-12-18T02:29:38;1.17;;;1.13;;
24461;SDS011;12631;50.860;5.714;2022-12-18T02:32:09;4.70;;;3.42;;
24461;SDS011;12631;50.860;5.714;2022-12-18T02:34:40;5.97;;;3.25;;
24461;SDS011;12631;50.860;5.714;2022-12-18T02:37:10;2.97;;;2.72;;
24461;SDS011;12631;50.860;5.714;2022-12-18T02:39:41;4.38;;;2.83;;
24461;SDS011;12631;50.860;5.714;2022-12-18T02:42:12;3.38;;;3.17;;
24461;SDS011;12631;50.860;5.714;2022-12-18T02:44:42;9.90;;;4.97;;
24461;SDS011;12631;50.860;5.714;2022-12-18T02:47:10;4.47;;;4.05;;
24461;SDS011;12631;50.860;5.714;2022-12-18T02:49:41;3.65;;;3.10;;
24461;SDS011;12631;50.860;5.714;2022-12-18T02:52:18;7.55;;;4.93;;
24461;SDS011;12631;50.860;5.714;2022-12-18T02:54:56;4.85;;;3.90;;
24461;SDS011;12631;50.860;5.714;2022-12-18T02:57:34;5.60;;;5.18;;
24461;SDS011;12631;50.860;5.714;2022-12-18T03:00:08;5.40;;;4.70;;
24461;SDS011;12631;50.860;5.714;2022-12-18T03:02:39;3.85;;;3.38;;
24461;SDS011;12631;50.860;5.714;2022-12-18T03:05:13;3.60;;;3.30;;
24461;SDS011;12631;50.860;5.714;2022-12-18T03:07:44;6.63;;;4.00;;
24461;SDS011;12631;50.860;5.714;2022-12-18T03:10:21;6.47;;;5.10;;
24461;SDS011;12631;50.860;5.714;2022-12-18T03:12:56;5.53;;;5.15;;
24461;SDS011;12631;50.860;5.714;2022-12-18T03:15:28;4.90;;;4.28;;
24461;SDS011;12631;50.860;5.714;2022-12-18T03:17:59;4.38;;;4.03;;
24461;SDS011;12631;50.860;5.714;2022-12-18T03:20:31;3.00;;;2.55;;
24461;SDS011;12631;50.860;5.714;2022-12-18T03:23:02;7.93;;;4.32;;
24461;SDS011;12631;50.860;5.714;2022-12-18T03:28:02;1.30;;;1.30;;
24461;SDS011;12631;50.860;5.714;2022-12-18T03:30:34;3.50;;;3.25;;
24461;SDS011;12631;50.860;5.714;2022-12-18T03:33:07;3.63;;;2.60;;
24461;SDS011;12631;50.860;5.714;2022-12-18T03:35:37;3.28;;;3.03;;
24461;SDS011;12631;50.860;5.714;2022-12-18T03:38:07;10.27;;;4.47;;
24461;SDS011;12631;50.860;5.714;2022-12-18T03:40:35;3.95;;;3.65;;
24461;SDS011;12631;50.860;5.714;2022-12-18T03:43:12;4.80;;;3.83;;
24461;SDS011;12631;50.860;5.714;2022-12-18T03:45:48;4.25;;;3.92;;
24461;SDS011;12631;50.860;5.714;2022-12-18T03:48:21;3.58;;;3.30;;
24461;SDS011;12631;50.860;5.714;2022-12-18T03:50:56;4.25;;;3.85;;
24461;SDS011;12631;50.860;5.714;2022-12-18T03:53:25;4.00;;;3.80;;
24461;SDS011;12631;50.860;5.714;2022-12-18T03:56:00;3.97;;;3.67;;
24461;SDS011;12631;50.860;5.714;2022-12-18T03:58:32;2.40;;;2.30;;
24461;SDS011;12631;50.860;5.714;2022-12-18T04:01:03;3.70;;;3.47;;
24461;SDS011;12631;50.860;5.714;2022-12-18T04:03:36;4.03;;;3.83;;
24461;SDS011;12631;50.860;5.714;2022-12-18T04:06:05;4.03;;;3.83;;
24461;SDS011;12631;50.860;5.714;2022-12-18T04:08:33;6.25;;;3.28;;
24461;SDS011;12631;50.860;5.714;2022-12-18T04:11:01;6.00;;;4.18;;
24461;SDS011;12631;50.860;5.714;2022-12-18T04:13:29;3.33;;;3.20;;
24461;SDS011;12631;50.860;5.714;2022-12-18T04:16:01;4.20;;;3.80;;
24461;SDS011;12631;50.860;5.714;2022-12-18T04:18:28;18.63;;;4.55;;
24461;SDS011;12631;50.860;5.714;2022-12-18T04:20:56;4.15;;;3.88;;
24461;SDS011;12631;50.860;5.714;2022-12-18T04:23:23;6.22;;;4.47;;
24461;SDS011;12631;50.860;5.714;2022-12-18T04:25:50;2.25;;;1.48;;
24461;SDS011;12631;50.860;5.714;2022-12-18T04:28:17;2.92;;;2.80;;
24461;SDS011;12631;50.860;5.714;2022-12-18T04:30:46;3.03;;;2.83;;
24461;SDS011;12631;50.860;5.714;2022-12-18T04:33:16;3.95;;;3.60;;
24461;SDS011;12631;50.860;5.714;2022-12-18T04:35:44;5.43;;;4.45;;
24461;SDS011;12631;50.860;5.714;2022-12-18T04:38:11;3.72;;;3.40;;
24461;SDS011;12631;50.860;5.714;2022-12-18T04:40:38;2.75;;;2.65;;
24461;SDS011;12631;50.860;5.714;2022-12-18T04:43:06;10.13;;;4.65;;
24461;SDS011;12631;50.860;5.714;2022-12-18T04:45:33;6.55;;;5.35;;
24461;SDS011;12631;50.860;5.714;2022-12-18T04:48:02;7.30;;;5.53;;
24461;SDS011;12631;50.860;5.714;2022-12-18T04:50:30;4.00;;;3.70;;
24461;SDS011;12631;50.860;5.714;2022-12-18T04:52:57;4.63;;;3.92;;
24461;SDS011;12631;50.860;5.714;2022-12-18T04:55:25;5.40;;;4.90;;
24461;SDS011;12631;50.860;5.714;2022-12-18T04:57:52;5.82;;;5.28;;
24461;SDS011;12631;50.860;5.714;2022-12-18T05:00:20;5.38;;;4.72;;
24461;SDS011;12631;50.860;5.714;2022-12-18T05:02:47;9.82;;;5.03;;
24461;SDS011;12631;50.860;5.714;2022-12-18T05:05:16;11.43;;;5.53;;
24461;SDS011;12631;50.860;5.714;2022-12-18T05:07:43;7.53;;;6.38;;
24461;SDS011;12631;50.860;5.714;2022-12-18T05:10:10;11.88;;;6.13;;
24461;SDS011;12631;50.860;5.714;2022-12-18T05:12:38;7.28;;;6.47;;
24461;SDS011;12631;50.860;5.714;2022-12-18T05:15:23;5.85;;;3.22;;
24461;SDS011;12631;50.860;5.714;2022-12-18T05:17:51;6.40;;;5.75;;
24461;SDS011;12631;50.860;5.714;2022-12-18T05:20:19;2.90;;;2.25;;
24461;SDS011;12631;50.860;5.714;2022-12-18T05:22:46;5.65;;;4.50;;
24461;SDS011;12631;50.860;5.714;2022-12-18T05:25:14;7.75;;;5.28;;
24461;SDS011;12631;50.860;5.714;2022-12-18T05:27:41;5.55;;;3.60;;
24461;SDS011;12631;50.860;5.714;2022-12-18T05:30:09;5.18;;;4.32;;
24461;SDS011;12631;50.860;5.714;2022-12-18T05:32:37;2.00;;;1.90;;
24461;SDS011;12631;50.860;5.714;2022-12-18T05:35:05;8.43;;;4.53;;
24461;SDS011;12631;50.860;5.714;2022-12-18T05:37:35;6.38;;;3.65;;
24461;SDS011;12631;50.860;5.714;2022-12-18T05:40:02;5.38;;;2.47;;
24461;SDS011;12631;50.860;5.714;2022-12-18T05:42:30;2.88;;;2.70;;
24461;SDS011;12631;50.860;5.714;2022-12-18T05:44:58;5.28;;;3.88;;
24461;SDS011;12631;50.860;5.714;2022-12-18T05:47:26;7.68;;;3.72;;
24461;SDS011;12631;50.860;5.714;2022-12-18T05:49:53;6.40;;;3.33;;
24461;SDS011;12631;50.860;5.714;2022-12-18T05:52:21;4.70;;;4.00;;
24461;SDS011;12631;50.860;5.714;2022-12-18T05:54:49;3.08;;;2.25;;
24461;SDS011;12631;50.860;5.714;2022-12-18T05:57:16;4.10;;;3.10;;
24461;SDS011;12631;50.860;5.714;2022-12-18T05:59:44;7.80;;;6.63;;
24461;SDS011;12631;50.860;5.714;2022-12-18T06:02:11;6.25;;;4.28;;
24461;SDS011;12631;50.860;5.714;2022-12-18T06:04:38;11.45;;;5.07;;
24461;SDS011;12631;50.860;5.714;2022-12-18T06:07:05;10.07;;;5.40;;
24461;SDS011;12631;50.860;5.714;2022-12-18T06:09:32;5.78;;;5.35;;
24461;SDS011;12631;50.860;5.714;2022-12-18T06:12:01;3.38;;;3.17;;
24461;SDS011;12631;50.860;5.714;2022-12-18T06:14:28;2.88;;;2.67;;
24461;SDS011;12631;50.860;5.714;2022-12-18T06:16:55;6.45;;;4.75;;
24461;SDS011;12631;50.860;5.714;2022-12-18T06:19:22;6.63;;;4.28;;
24461;SDS011;12631;50.860;5.714;2022-12-18T06:21:49;6.32;;;4.05;;
24461;SDS011;12631;50.860;5.714;2022-12-18T06:24:17;6.82;;;3.15;;
24461;SDS011;12631;50.860;5.714;2022-12-18T06:26:44;9.38;;;3.85;;
24461;SDS011;12631;50.860;5.714;2022-12-18T06:29:12;7.65;;;4.18;;
24461;SDS011;12631;50.860;5.714;2022-12-18T06:31:39;6.47;;;4.15;;
24461;SDS011;12631;50.860;5.714;2022-12-18T06:34:07;3.08;;;2.67;;
24461;SDS011;12631;50.860;5.714;2022-12-18T06:36:34;3.72;;;3.42;;
24461;SDS011;12631;50.860;5.714;2022-12-18T06:39:01;3.28;;;2.97;;
24461;SDS011;12631;50.860;5.714;2022-12-18T06:41:28;3.00;;;2.78;;
24461;SDS011;12631;50.860;5.714;2022-12-18T06:43:57;4.45;;;2.97;;
24461;SDS011;12631;50.860;5.714;2022-12-18T06:46:25;3.97;;;3.33;;
24461;SDS011;12631;50.860;5.714;2022-12-18T06:48:52;6.20;;;3.70;;
24461;SDS011;12631;50.860;5.714;2022-12-18T06:51:20;3.35;;;3.05;;
24461;SDS011;12631;50.860;5.714;2022-12-18T06:53:48;3.42;;;2.85;;
24461;SDS011;12631;50.860;5.714;2022-12-18T06:56:16;2.47;;;1.80;;
24461;SDS011;12631;50.860;5.714;2022-12-18T06:58:43;4.65;;;2.85;;
24461;SDS011;12631;50.860;5.714;2022-12-18T07:01:11;2.92;;;2.72;;
24461;SDS011;12631;50.860;5.714;2022-12-18T07:03:39;1.95;;;1.65;;
24461;SDS011;12631;50.860;5.714;2022-12-18T07:06:12;3.13;;;2.78;;
24461;SDS011;12631;50.860;5.714;2022-12-18T07:08:41;1.70;;;1.63;;
24461;SDS011;12631;50.860;5.714;2022-12-18T07:11:08;4.10;;;3.75;;
24461;SDS011;12631;50.860;5.714;2022-12-18T07:13:35;3.28;;;2.13;;
24461;SDS011;12631;50.860;5.714;2022-12-18T07:16:03;2.03;;;1.92;;
24461;SDS011;12631;50.860;5.714;2022-12-18T07:18:32;2.83;;;2.67;;
24461;SDS011;12631;50.860;5.714;2022-12-18T07:21:03;3.08;;;2.88;;
24461;SDS011;12631;50.860;5.714;2022-12-18T07:23:31;3.35;;;3.15;;
24461;SDS011;12631;50.860;5.714;2022-12-18T07:26:00;3.13;;;2.53;;
24461;SDS011;12631;50.860;5.714;2022-12-18T07:28:29;7.45;;;3.60;;
24461;SDS011;12631;50.860;5.714;2022-12-18T07:30:56;3.15;;;2.92;;
24461;SDS011;12631;50.860;5.714;2022-12-18T07:33:24;5.90;;;4.13;;
24461;SDS011;12631;50.860;5.714;2022-12-18T07:35:51;2.35;;;1.92;;
24461;SDS011;12631;50.860;5.714;2022-12-18T07:38:20;4.40;;;2.30;;
24461;SDS011;12631;50.860;5.714;2022-12-18T07:40:48;3.28;;;2.22;;
24461;SDS011;12631;50.860;5.714;2022-12-18T07:43:15;3.10;;;2.90;;
24461;SDS011;12631;50.860;5.714;2022-12-18T07:45:42;2.25;;;2.15;;
24461;SDS011;12631;50.860;5.714;2022-12-18T07:48:09;4.13;;;2.80;;
24461;SDS011;12631;50.860;5.714;2022-12-18T07:50:37;9.82;;;2.63;;
24461;SDS011;12631;50.860;5.714;2022-12-18T07:53:04;1.77;;;1.70;;
24461;SDS011;12631;50.860;5.714;2022-12-18T07:55:33;2.88;;;1.88;;
24461;SDS011;12631;50.860;5.714;2022-12-18T07:58:01;1.98;;;1.88;;
24461;SDS011;12631;50.860;5.714;2022-12-18T08:00:28;2.15;;;1.95;;
24461;SDS011;12631;50.860;5.714;2022-12-18T08:02:56;2.20;;;2.10;;
24461;SDS011;12631;50.860;5.714;2022-12-18T08:05:23;2.20;;;2.00;;
24461;SDS011;12631;50.860;5.714;2022-12-18T08:07:51;9.85;;;2.63;;
24461;SDS011;12631;50.860;5.714;2022-12-18T08:10:18;4.53;;;2.78;;
24461;SDS011;12631;50.860;5.714;2022-12-18T08:12:48;5.38;;;2.50;;
24461;SDS011;12631;50.860;5.714;2022-12-18T08:15:16;4.20;;;3.92;;
24461;SDS011;12631;50.860;5.714;2022-12-18T08:17:43;4.30;;;3.13;;
24461;SDS011;12631;50.860;5.714;2022-12-18T08:20:10;3.42;;;2.65;;
24461;SDS011;12631;50.860;5.714;2022-12-18T08:22:39;3.30;;;2.67;;
24461;SDS011;12631;50.860;5.714;2022-12-18T08:25:06;3.53;;;3.30;;
24461;SDS011;12631;50.860;5.714;2022-12-18T08:27:34;3.45;;;3.20;;
24461;SDS011;12631;50.860;5.714;2022-12-18T08:30:03;5.30;;;3.03;;
24461;SDS011;12631;50.860;5.714;2022-12-18T08:32:32;2.75;;;2.65;;
24461;SDS011;12631;50.860;5.714;2022-12-18T08:34:59;6.75;;;5.18;;
24461;SDS011;12631;50.860;5.714;2022-12-18T08:37:26;4.22;;;2.65;;
24461;SDS011;12631;50.860;5.714;2022-12-18T08:39:53;3.67;;;3.47;;
24461;SDS011;12631;50.860;5.714;2022-12-18T08:42:20;4.47;;;3.92;;
24461;SDS011;12631;50.860;5.714;2022-12-18T08:45:07;4.03;;;3.70;;
24461;SDS011;12631;50.860;5.714;2022-12-18T08:47:35;4.68;;;4.28;;
24461;SDS011;12631;50.860;5.714;2022-12-18T08:50:02;3.67;;;3.28;;
24461;SDS011;12631;50.860;5.714;2022-12-18T08:52:31;8.75;;;4.97;;
24461;SDS011;12631;50.860;5.714;2022-12-18T08:54:59;4.43;;;3.10;;
24461;SDS011;12631;50.860;5.714;2022-12-18T08:57:26;6.43;;;4.53;;
24461;SDS011;12631;50.860;5.714;2022-12-18T08:59:53;4.50;;;4.10;;
24461;SDS011;12631;50.860;5.714;2022-12-18T09:02:22;8.85;;;3.78;;
24461;SDS011;12631;50.860;5.714;2022-12-18T09:04:49;4.65;;;3.75;;
24461;SDS011;12631;50.860;5.714;2022-12-18T09:07:16;4.72;;;3.50;;
24461;SDS011;12631;50.860;5.714;2022-12-18T09:09:43;3.47;;;3.17;;
24461;SDS011;12631;50.860;5.714;2022-12-18T09:12:11;4.75;;;3.80;;
24461;SDS011;12631;50.860;5.714;2022-12-18T09:14:38;4.57;;;3.75;;
24461;SDS011;12631;50.860;5.714;2022-12-18T09:17:05;5.15;;;4.30;;
24461;SDS011;12631;50.860;5.714;2022-12-18T09:19:34;3.45;;;3.13;;
24461;SDS011;12631;50.860;5.714;2022-12-18T09:22:01;4.53;;;4.13;;
24461;SDS011;12631;50.860;5.714;2022-12-18T09:24:28;5.15;;;3.88;;
24461;SDS011;12631;50.860;5.714;2022-12-18T09:26:55;4.95;;;4.05;;
24461;SDS011;12631;50.860;5.714;2022-12-18T09:29:23;5.82;;;3.05;;
24461;SDS011;12631;50.860;5.714;2022-12-18T09:31:50;8.18;;;3.80;;
24461;SDS011;12631;50.860;5.714;2022-12-18T09:34:17;5.35;;;4.50;;
24461;SDS011;12631;50.860;5.714;2022-12-18T09:36:47;7.05;;;4.63;;
24461;SDS011;12631;50.860;5.714;2022-12-18T09:39:14;4.57;;;4.15;;
24461;SDS011;12631;50.860;5.714;2022-12-18T09:41:43;9.02;;;4.22;;
24461;SDS011;12631;50.860;5.714;2022-12-18T09:44:14;4.40;;;3.83;;
24461;SDS011;12631;50.860;5.714;2022-12-18T09:46:51;4.63;;;4.18;;
24461;SDS011;12631;50.860;5.714;2022-12-18T09:49:25;11.27;;;4.50;;
24461;SDS011;12631;50.860;5.714;2022-12-18T09:51:57;5.00;;;4.03;;
24461;SDS011;12631;50.860;5.714;2022-12-18T09:54:31;6.38;;;4.15;;
24461;SDS011;12631;50.860;5.714;2022-12-18T09:57:02;10.52;;;4.60;;
24461;SDS011;12631;50.860;5.714;2022-12-18T09:59:30;4.32;;;3.47;;
24461;SDS011;12631;50.860;5.714;2022-12-18T10:02:07;8.52;;;4.75;;
24461;SDS011;12631;50.860;5.714;2022-12-18T10:04:43;3.92;;;3.58;;
24461;SDS011;12631;50.860;5.714;2022-12-18T10:07:19;4.22;;;3.67;;
24461;SDS011;12631;50.860;5.714;2022-12-18T10:09:56;4.90;;;3.55;;
24461;SDS011;12631;50.860;5.714;2022-12-18T10:12:30;6.32;;;4.55;;
24461;SDS011;12631;50.860;5.714;2022-12-18T10:15:05;7.90;;;5.55;;
24461;SDS011;12631;50.860;5.714;2022-12-18T10:17:40;6.70;;;4.88;;
24461;SDS011;12631;50.860;5.714;2022-12-18T10:20:13;6.10;;;4.28;;
24461;SDS011;12631;50.860;5.714;2022-12-18T10:22:50;8.43;;;4.60;;
24461;SDS011;12631;50.860;5.714;2022-12-18T10:25:24;4.40;;;4.00;;
24461;SDS011;12631;50.860;5.714;2022-12-18T10:27:57;4.53;;;4.13;;
24461;SDS011;12631;50.860;5.714;2022-12-18T10:30:27;8.97;;;4.90;;
24461;SDS011;12631;50.860;5.714;2022-12-18T10:32:54;10.52;;;4.10;;
24461;SDS011;12631;50.860;5.714;2022-12-18T10:35:27;4.53;;;4.13;;
24461;SDS011;12631;50.860;5.714;2022-12-18T10:38:03;5.53;;;4.18;;
24461;SDS011;12631;50.860;5.714;2022-12-18T10:40:48;7.75;;;4.30;;
24461;SDS011;12631;50.860;5.714;2022-12-18T10:43:19;7.20;;;5.55;;
24461;SDS011;12631;50.860;5.714;2022-12-18T10:45:58;5.30;;;4.35;;
24461;SDS011;12631;50.860;5.714;2022-12-18T10:48:28;4.85;;;3.55;;
24461;SDS011;12631;50.860;5.714;2022-12-18T10:50:56;8.48;;;4.97;;
24461;SDS011;12631;50.860;5.714;2022-12-18T10:53:26;9.25;;;6.38;;
24461;SDS011;12631;50.860;5.714;2022-12-18T10:55:56;7.82;;;4.95;;
24461;SDS011;12631;50.860;5.714;2022-12-18T10:58:29;9.02;;;4.82;;
24461;SDS011;12631;50.860;5.714;2022-12-18T11:01:06;6.65;;;5.07;;
24461;SDS011;12631;50.860;5.714;2022-12-18T11:03:36;8.75;;;4.55;;
24461;SDS011;12631;50.860;5.714;2022-12-18T11:06:05;6.88;;;5.18;;
24461;SDS011;12631;50.860;5.714;2022-12-18T11:08:35;7.82;;;4.72;;
24461;SDS011;12631;50.860;5.714;2022-12-18T11:11:04;6.80;;;4.00;;
24461;SDS011;12631;50.860;5.714;2022-12-18T11:13:42;7.38;;;5.28;;
24461;SDS011;12631;50.860;5.714;2022-12-18T11:16:25;5.53;;;4.18;;
24461;SDS011;12631;50.860;5.714;2022-12-18T11:18:54;8.18;;;6.00;;
24461;SDS011;12631;50.860;5.714;2022-12-18T11:21:22;10.38;;;5.60;;
24461;SDS011;12631;50.860;5.714;2022-12-18T11:23:51;8.38;;;4.60;;
24461;SDS011;12631;50.860;5.714;2022-12-18T11:26:20;8.23;;;4.88;;
24461;SDS011;12631;50.860;5.714;2022-12-18T11:29:07;8.27;;;5.28;;
24461;SDS011;12631;50.860;5.714;2022-12-18T11:31:36;7.32;;;5.38;;
24461;SDS011;12631;50.860;5.714;2022-12-18T11:34:04;8.32;;;5.72;;
24461;SDS011;12631;50.860;5.714;2022-12-18T11:36:39;6.78;;;5.53;;
24461;SDS011;12631;50.860;5.714;2022-12-18T11:39:12;5.05;;;3.83;;
24461;SDS011;12631;50.860;5.714;2022-12-18T11:41:47;6.18;;;4.68;;
24461;SDS011;12631;50.860;5.714;2022-12-18T11:44:42;5.57;;;4.50;;
24461;SDS011;12631;50.860;5.714;2022-12-18T11:47:15;7.07;;;4.93;;
24461;SDS011;12631;50.860;5.714;2022-12-18T11:49:52;7.80;;;4.88;;
24461;SDS011;12631;50.860;5.714;2022-12-18T11:52:23;7.55;;;6.25;;
24461;SDS011;12631;50.860;5.714;2022-12-18T11:54:55;7.97;;;5.88;;
24461;SDS011;12631;50.860;5.714;2022-12-18T11:57:29;7.15;;;5.68;;
24461;SDS011;12631;50.860;5.714;2022-12-18T12:00:04;5.90;;;4.15;;
24461;SDS011;12631;50.860;5.714;2022-12-18T12:02:47;6.50;;;5.90;;
24461;SDS011;12631;50.860;5.714;2022-12-18T12:05:43;6.38;;;5.03;;
24461;SDS011;12631;50.860;5.714;2022-12-18T12:08:20;7.40;;;5.18;;
24461;SDS011;12631;50.860;5.714;2022-12-18T12:11:01;12.13;;;5.97;;
24461;SDS011;12631;50.860;5.714;2022-12-18T12:13:39;7.68;;;5.18;;
24461;SDS011;12631;50.860;5.714;2022-12-18T12:16:16;9.70;;;5.55;;
24461;SDS011;12631;50.860;5.714;2022-12-18T12:19:01;5.95;;;4.97;;
24461;SDS011;12631;50.860;5.714;2022-12-18T12:21:43;9.20;;;5.72;;
24461;SDS011;12631;50.860;5.714;2022-12-18T12:24:22;9.45;;;6.13;;
24461;SDS011;12631;50.860;5.714;2022-12-18T12:27:00;10.63;;;6.50;;
24461;SDS011;12631;50.860;5.714;2022-12-18T12:29:37;8.85;;;5.90;;
24461;SDS011;12631;50.860;5.714;2022-12-18T12:32:17;6.43;;;5.68;;
24461;SDS011;12631;50.860;5.714;2022-12-18T12:34:55;7.80;;;6.18;;
24461;SDS011;12631;50.860;5.714;2022-12-18T12:37:33;8.07;;;5.18;;
24461;SDS011;12631;50.860;5.714;2022-12-18T12:40:10;5.93;;;5.32;;
24461;SDS011;12631;50.860;5.714;2022-12-18T12:42:42;9.32;;;6.43;;
24461;SDS011;12631;50.860;5.714;2022-12-18T12:45:32;7.47;;;6.00;;
24461;SDS011;12631;50.860;5.714;2022-12-18T12:48:03;8.05;;;6.88;;
24461;SDS011;12631;50.860;5.714;2022-12-18T12:50:41;8.70;;;5.65;;
24461;SDS011;12631;50.860;5.714;2022-12-18T12:53:11;8.57;;;6.28;;
24461;SDS011;12631;50.860;5.714;2022-12-18T12:55:47;9.75;;;6.50;;
24461;SDS011;12631;50.860;5.714;2022-12-18T12:58:17;8.43;;;6.00;;
24461;SDS011;12631;50.860;5.714;2022-12-18T13:00:53;10.15;;;6.45;;
24461;SDS011;12631;50.860;5.714;2022-12-18T13:03:29;11.32;;;6.65;;
24461;SDS011;12631;50.860;5.714;2022-12-18T13:06:04;8.52;;;6.57;;
24461;SDS011;12631;50.860;5.714;2022-12-18T13:08:52;8.13;;;6.53;;
24461;SDS011;12631;50.860;5.714;2022-12-18T13:11:28;9.82;;;6.18;;
24461;SDS011;12631;50.860;5.714;2022-12-18T13:14:24;11.38;;;7.43;;
24461;SDS011;12631;50.860;5.714;2022-12-18T13:20:03;15.18;;;6.90;;
24461;SDS011;12631;50.860;5.714;2022-12-18T13:22:35;9.77;;;6.95;;
24461;SDS011;12631;50.860;5.714;2022-12-18T13:28:04;8.70;;;6.55;;
24461;SDS011;12631;50.860;5.714;2022-12-18T13:30:52;7.55;;;5.80;;
24461;SDS011;12631;50.860;5.714;2022-12-18T13:36:16;8.77;;;6.88;;
24461;SDS011;12631;50.860;5.714;2022-12-18T13:41:50;10.00;;;6.28;;
24461;SDS011;12631;50.860;5.714;2022-12-18T13:44:26;9.32;;;6.15;;
24461;SDS011;12631;50.860;5.714;2022-12-18T13:46:59;10.55;;;7.18;;
24461;SDS011;12631;50.860;5.714;2022-12-18T13:49:30;8.55;;;6.20;;
24461;SDS011;12631;50.860;5.714;2022-12-18T13:52:13;9.95;;;6.78;;
24461;SDS011;12631;50.860;5.714;2022-12-18T13:54:45;14.55;;;7.53;;
24461;SDS011;12631;50.860;5.714;2022-12-18T13:57:25;8.52;;;6.88;;
24461;SDS011;12631;50.860;5.714;2022-12-18T13:59:54;8.65;;;7.00;;
24461;SDS011;12631;50.860;5.714;2022-12-18T14:02:24;9.75;;;7.10;;
24461;SDS011;12631;50.860;5.714;2022-12-18T14:04:53;11.02;;;6.93;;
24461;SDS011;12631;50.860;5.714;2022-12-18T14:07:21;12.48;;;7.72;;
24461;SDS011;12631;50.860;5.714;2022-12-18T14:09:51;16.30;;;8.30;;
24461;SDS011;12631;50.860;5.714;2022-12-18T14:12:22;10.27;;;8.05;;
24461;SDS011;12631;50.860;5.714;2022-12-18T14:15:13;13.43;;;6.72;;
24461;SDS011;12631;50.860;5.714;2022-12-18T14:17:53;14.52;;;7.53;;
24461;SDS011;12631;50.860;5.714;2022-12-18T14:20:23;12.38;;;7.07;;
24461;SDS011;12631;50.860;5.714;2022-12-18T14:22:52;8.40;;;7.20;;
24461;SDS011;12631;50.860;5.714;2022-12-18T14:25:24;11.20;;;7.80;;
24461;SDS011;12631;50.860;5.714;2022-12-18T14:27:53;10.27;;;7.35;;
24461;SDS011;12631;50.860;5.714;2022-12-18T14:30:33;11.50;;;7.70;;
24461;SDS011;12631;50.860;5.714;2022-12-18T14:33:05;13.05;;;9.18;;
24461;SDS011;12631;50.860;5.714;2022-12-18T14:35:36;13.32;;;8.20;;
24461;SDS011;12631;50.860;5.714;2022-12-18T14:38:14;12.90;;;7.90;;
24461;SDS011;12631;50.860;5.714;2022-12-18T14:40:47;14.55;;;9.18;;
24461;SDS011;12631;50.860;5.714;2022-12-18T14:43:18;17.17;;;9.30;;
24461;SDS011;12631;50.860;5.714;2022-12-18T14:45:45;17.75;;;9.23;;
24461;SDS011;12631;50.860;5.714;2022-12-18T14:48:17;13.30;;;8.48;;
24461;SDS011;12631;50.860;5.714;2022-12-18T14:50:53;19.33;;;8.43;;
24461;SDS011;12631;50.860;5.714;2022-12-18T14:53:23;14.85;;;8.60;;
24461;SDS011;12631;50.860;5.714;2022-12-18T14:55:58;10.02;;;8.82;;
24461;SDS011;12631;50.860;5.714;2022-12-18T14:58:26;13.55;;;9.60;;
24461;SDS011;12631;50.860;5.714;2022-12-18T15:00:53;11.75;;;8.40;;
24461;SDS011;12631;50.860;5.714;2022-12-18T15:03:22;11.90;;;8.15;;
24461;SDS011;12631;50.860;5.714;2022-12-18T15:05:49;17.08;;;10.30;;
24461;SDS011;12631;50.860;5.714;2022-12-18T15:08:30;11.63;;;7.50;;
24461;SDS011;12631;50.860;5.714;2022-12-18T15:11:01;9.00;;;6.85;;
